Glasco, Kansas
Current Conditions -  °F | °C
As of 7:55 AM on Tuesday 27 Jan 2015 (Local Time) from KCNK Reporting Station
Clear Clear  
Wind Chill: 30°   Ceiling: Unl
Heat Index: 30°   Visibility: 10mi
Dew Point: 27°   Wind: 3mph
Humidity: 88%   Direction: 110°ESE
Pressure: 30.09"   Gusts: NA
Location:  39.36°N, 97.84°W
Report Text: KCNK 271355Z AUTO 11003KT 10SM CLR M01/M03 A3009 RMK AO2 SLP195 T10111028
Loading
Personal Weather Stations






























Interactive Weather Map New forecast layout! Learn more

10-Day Weather Forecast

Advertisements
Track Severe Weather on mobile